.
WxDataArchive / Data Records for 2013-04-30
2013-04-29 April 2013 2013-05-01

Data Records for Tuesday, 30 April 2013

Time	Temp	Chill	HIndex	Humid	Dewpt	 Wind 	HiWind	WindDir	Rain 	Barom 
-----	----	-----	------	-----	-----	------	------	-------	-----	----- 
00:00	57.6	57.6	57.6	81	51.8	0	2	112	0.00	29.911 
00:05	57.8	57.8	57.8	81	52.0	0	2	112	0.00	29.911 
00:10	57.8	57.8	57.8	81	52.0	0	4	112	0.00	29.911 
00:15	57.8	57.8	57.8	81	52.0	0	1	112	0.00	29.908 
00:20	57.6	57.6	57.6	81	51.8	0	0	---	0.00	29.908 
00:25	57.5	57.5	57.5	81	51.7	0	0	---	0.00	29.908 
00:30	57.2	57.2	57.2	82	51.8	0	2	135	0.00	29.918 
00:35	57.2	57.2	57.2	83	52.1	0	1	135	0.00	29.918 
00:40	57.2	57.2	57.2	83	52.1	0	3	135	0.00	29.918 
00:45	57.3	57.3	57.3	83	52.2	1	3	135	0.00	29.920 
00:50	57.3	57.3	57.3	83	52.2	0	2	112	0.00	29.920 
00:55	57.3	57.3	57.3	83	52.2	0	2	135	0.00	29.920 
01:00	57.3	57.3	57.3	83	52.2	0	2	112	0.00	29.923 
01:05	57.2	57.2	57.2	83	52.1	0	1	112	0.00	29.923 
01:10	57.0	57.0	57.0	83	51.9	0	2	112	0.00	29.923 
01:15	56.9	56.9	56.9	84	52.1	0	2	112	0.00	29.921 
01:20	56.9	56.9	56.9	84	52.1	0	3	135	0.00	29.921 
01:25	56.9	56.9	56.9	84	52.1	1	3	112	0.00	29.921 
01:30	56.7	56.7	56.7	84	51.9	0	2	112	0.00	29.923 
01:35	56.6	56.6	56.6	84	51.8	0	2	135	0.00	29.923 
01:40	56.6	56.6	56.6	84	51.8	0	1	135	0.00	29.923 
01:45	56.5	56.5	56.5	84	51.7	0	1	135	0.00	29.925 
01:50	56.3	56.3	56.3	85	51.8	0	2	135	0.00	29.925 
01:55	56.2	56.2	56.2	85	51.7	0	1	135	0.00	29.925 
02:00	56.2	56.2	56.2	85	51.7	0	2	135	0.00	29.932 
02:05	56.0	56.0	56.0	85	51.6	0	1	135	0.00	29.932 
02:10	56.0	56.0	56.0	85	51.6	0	1	135	0.00	29.932 
02:15	56.0	56.0	56.0	86	51.9	0	1	135	0.00	29.932 
02:20	56.0	56.0	56.0	86	51.9	0	1	135	0.00	29.932 
02:25	56.0	56.0	56.0	86	51.9	0	1	135	0.00	29.932 
02:30	55.9	55.9	55.9	86	51.8	0	1	135	0.00	29.927 
02:35	55.9	55.9	55.9	86	51.8	0	1	135	0.00	29.927 
02:40	55.9	55.9	55.9	86	51.8	0	1	135	0.00	29.927 
02:45	56.0	56.0	56.0	86	51.9	0	1	135	0.00	29.932 
02:50	56.0	56.0	56.0	86	51.9	0	1	135	0.00	29.932 
02:55	56.0	56.0	56.0	86	51.9	0	3	135	0.00	29.932 
03:00	56.0	56.0	56.0	86	51.9	0	1	135	0.00	29.930 
03:05	56.0	56.0	56.0	86	51.9	0	3	135	0.00	29.930 
03:10	56.0	56.0	56.0	85	51.6	0	1	135	0.00	29.930 
03:15	55.9	55.9	55.9	85	51.5	0	1	135	0.00	29.932 
03:20	55.7	55.7	55.7	86	51.6	0	1	135	0.00	29.932 
03:25	55.7	55.7	55.7	86	51.6	0	1	135	0.00	29.932 
03:30	55.7	55.7	55.7	86	51.6	0	0	---	0.00	29.934 
03:35	55.7	55.7	55.7	86	51.6	0	1	202	0.00	29.934 
03:40	55.6	55.6	55.6	86	51.5	0	0	---	0.00	29.934 
03:45	55.4	55.4	55.4	86	51.3	0	1	202	0.00	29.937 
03:50	55.3	55.3	55.3	86	51.2	0	1	202	0.00	29.937 
03:55	55.1	55.1	55.1	86	51.0	0	1	202	0.00	29.937 
04:00	55.1	55.1	55.1	87	51.3	0	2	202	0.00	29.934 
04:05	55.1	55.1	55.1	87	51.3	0	1	202	0.00	29.934 
04:10	55.1	55.1	55.1	86	51.0	0	1	202	0.00	29.934 
04:15	55.0	55.0	55.0	86	50.9	0	0	---	0.00	29.938 
04:20	54.7	54.7	54.7	86	50.6	0	1	202	0.00	29.938 
04:25	54.5	54.5	54.5	87	50.7	0	0	---	0.00	29.938 
04:30	54.5	54.5	54.5	87	50.7	0	2	180	0.00	29.937 
04:35	54.5	54.5	54.5	87	50.7	0	1	180	0.00	29.937 
04:40	54.5	54.5	54.5	87	50.7	0	1	180	0.00	29.937 
04:45	54.4	54.4	54.4	87	50.6	0	1	180	0.00	29.940 
04:50	54.2	54.2	54.2	87	50.4	0	1	180	0.00	29.940 
04:55	54.1	54.1	54.1	88	50.6	0	1	180	0.00	29.940 
05:00	54.1	54.1	54.1	88	50.6	0	2	180	0.00	29.934 
05:05	54.1	54.1	54.1	88	50.6	0	1	180	0.00	29.934 
05:10	53.9	53.9	53.9	88	50.4	1	4	135	0.00	29.934 
05:15	53.9	53.9	53.9	88	50.4	0	2	135	0.00	29.927 
05:20	53.8	53.8	53.8	88	50.3	0	1	135	0.00	29.927 
05:25	53.5	53.5	53.5	88	50.0	0	2	135	0.00	29.927 
05:30	53.5	53.5	53.5	89	50.3	0	1	135	0.00	29.927 
05:35	53.3	53.3	53.3	89	50.1	0	0	---	0.00	29.927 
05:40	53.1	53.1	53.1	89	49.9	0	0	---	0.00	29.927 
05:45	52.8	52.8	52.8	89	49.6	0	0	---	0.00	29.935 
05:50	52.5	52.5	52.5	89	49.4	0	0	---	0.00	29.935 
05:55	52.3	52.3	52.3	89	49.2	0	0	---	0.00	29.935 
06:00	52.2	52.2	52.2	90	49.4	0	1	135	0.00	29.930 
06:05	52.2	52.2	52.2	90	49.4	0	1	135	0.00	29.930 
06:10	52.0	52.0	52.0	90	49.2	0	0	---	0.00	29.930 
06:15	51.9	51.9	51.9	90	49.1	0	0	---	0.00	29.941 
06:20	51.6	51.6	51.6	90	48.8	0	0	---	0.00	29.941 
06:25	51.4	51.4	51.4	90	48.6	0	0	---	0.00	29.941 
06:30	51.4	51.4	51.4	91	48.9	0	2	135	0.00	29.942 
06:35	51.4	51.4	51.4	91	48.9	0	1	135	0.00	29.942 
06:40	51.4	51.4	51.4	91	48.9	0	0	---	0.00	29.942 
06:45	51.4	51.4	51.4	91	48.9	0	0	---	0.00	29.942 
06:50	51.4	51.4	51.4	91	48.9	0	1	248	0.00	29.942 
06:55	51.4	51.4	51.4	92	49.2	0	1	248	0.00	29.942 
07:00	51.4	51.4	51.4	92	49.2	0	1	248	0.00	29.944 
07:05	51.6	51.6	51.6	92	49.4	0	1	248	0.00	29.944 
07:10	51.9	51.9	51.9	92	49.6	0	1	248	0.00	29.944 
07:15	52.0	52.0	52.0	92	49.7	0	1	248	0.00	29.953 
07:20	52.3	52.3	52.3	92	50.0	0	2	248	0.00	29.953 
07:25	52.6	52.6	52.6	91	50.0	0	1	248	0.00	29.953 
07:30	52.9	52.9	52.9	91	50.3	0	2	248	0.00	29.957 
07:35	53.2	53.2	53.2	91	50.6	0	2	248	0.00	29.957 
07:40	53.6	53.6	53.6	90	50.7	0	3	248	0.00	29.957 
07:45	54.1	54.1	54.1	89	50.9	1	5	248	0.00	29.962 
07:50	54.7	54.7	54.7	88	51.2	1	3	90	0.00	29.962 
07:55	55.3	55.3	55.3	86	51.2	1	6	90	0.00	29.962 
08:00	55.7	55.7	55.7	84	50.9	1	6	112	0.00	29.959 
08:05	56.2	56.2	56.2	83	51.1	1	4	112	0.00	29.959 
08:10	56.5	56.5	56.5	82	51.1	2	5	112	0.00	29.959 
08:15	56.9	56.9	56.9	81	51.1	1	9	90	0.00	29.968 
08:20	57.3	57.3	57.3	80	51.2	1	4	112	0.00	29.968 
08:25	58.0	58.0	58.0	79	51.5	1	3	112	0.00	29.968 
08:30	58.6	58.6	58.6	77	51.4	1	4	112	0.00	29.963 
08:35	58.9	58.9	58.9	76	51.3	3	5	90	0.00	29.963 
08:40	59.0	59.0	59.0	76	51.4	2	4	112	0.00	29.963 
08:45	59.3	59.3	59.3	75	51.4	3	6	112	0.00	29.966 
08:50	59.8	59.8	59.8	74	51.5	2	6	112	0.00	29.966 
08:55	60.4	60.4	60.4	74	52.1	1	5	112	0.00	29.966 
09:00	60.9	60.9	60.9	73	52.2	1	4	112	0.00	29.973 
09:05	61.3	61.3	61.3	71	51.8	1	5	112	0.00	29.973 
09:10	62.0	62.0	62.0	71	52.5	1	3	135	0.00	29.973 
09:15	62.6	62.6	62.6	69	52.3	1	3	135	0.00	29.973 
09:20	63.2	63.2	63.2	68	52.5	1	3	135	0.00	29.973 
09:25	63.5	63.5	63.5	68	52.7	2	5	112	0.00	29.973 
09:30	63.4	63.4	63.4	68	52.6	2	9	112	0.00	29.983 
09:35	63.9	63.9	63.9	69	53.5	1	3	135	0.00	29.983 
09:40	64.2	64.2	64.2	69	53.8	1	3	202	0.00	29.983 
09:45	64.7	64.7	64.7	66	53.1	2	5	45	0.00	29.980 
09:50	64.7	64.7	64.7	67	53.5	2	5	112	0.00	29.980 
09:55	64.7	64.7	64.7	65	52.7	3	7	90	0.00	29.980 
10:00	64.8	64.8	64.8	67	53.6	3	7	90	0.00	29.979 
10:05	65.2	65.2	65.2	66	53.5	1	6	90	0.00	29.979 
10:10	65.6	65.6	65.6	65	53.5	3	5	112	0.00	29.979 
10:15	65.8	65.8	65.8	64	53.3	3	9	112	0.00	29.971 
10:20	65.8	65.8	65.8	66	54.1	2	7	68	0.00	29.971 
10:25	66.0	66.0	66.0	65	53.9	2	5	90	0.00	29.971 
10:30	66.1	66.1	66.1	65	54.0	2	5	90	0.00	29.976 
10:35	66.9	66.9	66.9	66	55.2	1	7	90	0.00	29.976 
10:40	66.9	66.9	66.9	64	54.3	3	7	135	0.00	29.976 
10:45	66.8	66.8	66.8	64	54.2	3	7	90	0.00	29.971 
10:50	66.9	66.9	66.9	63	53.9	3	7	90	0.00	29.971 
10:55	66.9	66.9	66.9	64	54.3	2	5	90	0.00	29.971 
11:00	67.1	67.1	67.1	63	54.1	2	7	112	0.00	29.972 
11:05	67.1	67.1	67.1	63	54.1	3	6	90	0.00	29.972 
11:10	67.4	67.4	67.4	63	54.4	2	6	90	0.00	29.972 
11:15	67.6	67.6	67.6	63	54.5	3	9	90	0.00	29.969 
11:20	67.8	67.8	67.8	62	54.3	3	6	68	0.00	29.969 
11:25	67.9	67.9	67.9	62	54.4	3	6	90	0.00	29.969 
11:30	67.9	67.9	67.9	62	54.4	3	10	90	0.00	29.979 
11:35	68.3	68.3	68.3	63	55.2	2	7	90	0.00	29.979 
11:40	68.6	68.6	68.6	62	55.0	2	6	90	0.00	29.979 
11:45	68.9	68.9	68.9	61	54.9	3	7	90	0.00	29.975 
11:50	69.3	69.3	69.3	62	55.7	2	5	112	0.00	29.975 
11:55	69.8	69.8	69.8	60	55.3	3	8	90	0.00	29.975 
12:00	70.1	70.1	70.1	62	56.5	3	8	90	0.00	29.969 
12:05	70.3	70.3	70.3	62	56.7	2	5	90	0.00	29.969 
12:10	70.8	70.8	70.8	61	56.7	2	7	112	0.00	29.969 
12:15	71.1	71.1	71.1	59	56.0	2	7	112	0.00	29.976 
12:20	71.5	71.5	71.5	60	56.9	2	4	112	0.00	29.976 
12:25	71.3	71.3	71.3	59	56.2	3	7	90	0.00	29.976 
12:30	71.1	71.1	71.1	59	56.0	2	7	90	0.00	29.980 
12:35	71.3	71.3	71.3	58	55.7	3	6	90	0.00	29.980 
12:40	71.5	71.5	71.5	59	56.4	2	5	112	0.00	29.980 
12:45	71.6	71.6	71.6	58	56.0	2	9	90	0.00	29.981 
12:50	71.8	71.8	71.8	59	56.7	2	5	68	0.00	29.981 
12:55	72.0	72.0	72.0	62	58.3	2	5	90	0.00	29.981 
13:00	72.1	72.1	72.1	59	57.0	3	11	90	0.00	29.979 
13:05	72.3	72.3	72.3	59	57.2	2	6	112	0.00	29.979 
13:10	72.5	72.5	72.5	58	56.9	3	6	90	0.00	29.979 
13:15	72.7	72.7	72.7	60	58.0	1	4	112	0.00	29.973 
13:20	73.0	73.0	73.0	58	57.3	2	9	112	0.00	29.973 
13:25	73.5	73.5	73.5	59	58.3	2	9	112	0.00	29.973 
13:30	73.9	73.9	73.9	59	58.7	2	6	112	0.00	29.969 
13:35	74.0	74.0	74.0	58	58.3	2	5	112	0.00	29.969 
13:40	73.7	73.7	73.7	57	57.5	3	7	90	0.00	29.969 
13:45	73.7	73.7	73.7	58	58.0	2	6	90	0.00	29.964 
13:50	73.9	73.9	73.9	58	58.2	2	9	112	0.00	29.964 
13:55	74.0	74.0	74.0	57	57.8	2	7	112	0.00	29.964 
14:00	73.9	73.9	73.9	57	57.7	2	4	112	0.00	29.968 
14:05	73.7	73.7	73.7	58	58.0	2	5	112	0.00	29.968 
14:10	74.2	74.2	74.2	58	58.5	2	4	90	0.00	29.968 
14:15	74.7	74.7	74.7	57	58.4	3	6	90	0.00	29.963 
14:20	75.1	75.1	77.6	56	58.3	3	6	68	0.00	29.963 
14:25	75.4	75.4	77.7	57	59.1	2	6	112	0.00	29.963 
14:30	75.6	75.6	77.8	56	58.8	3	9	112	0.00	29.963 
14:35	75.8	75.8	77.9	57	59.5	2	5	112	0.00	29.963 
14:40	76.0	76.0	78.1	56	59.2	3	7	90	0.00	29.963 
14:45	75.8	75.8	78.0	55	58.5	3	6	90	0.00	29.956 
14:50	75.8	75.8	77.9	57	59.5	3	6	68	0.00	29.956 
14:55	75.6	75.6	77.8	55	58.3	3	9	112	0.00	29.956 
15:00	75.6	75.6	77.8	55	58.3	3	10	90	0.00	29.953 
15:05	75.6	75.6	77.8	58	59.8	3	8	90	0.00	29.953 
15:10	75.8	75.8	77.9	58	59.9	3	9	45	0.00	29.953 
15:15	76.3	76.3	78.3	56	59.4	2	11	90	0.00	29.959 
15:20	76.7	76.7	78.5	58	60.8	1	6	90	0.00	29.959 
15:25	76.7	76.7	78.5	58	60.8	3	7	112	0.00	29.959 
15:30	76.3	76.3	78.3	54	58.4	4	12	112	0.00	29.956 
15:35	76.5	76.5	78.4	58	60.6	2	6	90	0.00	29.956 
15:40	76.7	76.7	78.5	54	58.8	3	7	112	0.00	29.956 
15:45	76.7	76.7	78.5	56	59.8	3	9	90	0.00	29.951 
15:50	76.8	76.8	78.6	55	59.4	3	7	112	0.00	29.951 
15:55	76.7	76.7	78.5	56	59.8	3	9	90	0.00	29.951 
16:00	76.7	76.7	78.5	58	60.8	1	4	112	0.00	29.947 
16:05	76.7	76.7	78.5	57	60.3	2	4	68	0.00	29.947 
16:10	76.5	76.5	78.4	56	59.6	2	5	112	0.00	29.947 
16:15	76.1	76.1	78.1	56	59.2	2	6	90	0.00	29.946 
16:20	76.0	76.0	78.1	57	59.6	2	6	90	0.00	29.946 
16:25	76.1	76.1	78.1	57	59.7	2	6	135	0.00	29.946 
16:30	76.0	76.0	78.1	55	58.6	3	7	112	0.00	29.944 
16:35	76.1	76.1	78.1	57	59.7	1	4	112	0.00	29.944 
16:40	76.5	76.5	78.4	56	59.6	2	7	90	0.00	29.944 
16:45	76.7	76.7	78.5	55	59.3	3	7	112	0.00	29.939 
16:50	76.5	76.5	78.4	55	59.1	4	9	90	0.00	29.939 
16:55	76.3	76.3	78.3	55	58.9	3	7	112	0.00	29.939 
17:00	76.1	76.1	78.1	56	59.2	3	10	90	0.00	29.934 
17:05	76.0	76.0	78.1	56	59.2	3	10	90	0.00	29.934 
17:10	76.0	76.0	78.1	55	58.6	3	10	90	0.00	29.934 
17:15	75.8	75.8	77.9	56	59.0	2	6	112	0.00	29.940 
17:20	75.8	75.8	77.9	56	59.0	3	7	112	0.00	29.940 
17:25	75.6	75.6	77.8	55	58.3	3	8	112	0.00	29.940 
17:30	75.4	75.4	77.7	55	58.1	3	9	112	0.00	29.943 
17:35	75.4	75.4	77.7	56	58.6	3	7	90	0.00	29.943 
17:40	75.6	75.6	77.8	56	58.8	3	6	112	0.00	29.943 
17:45	75.6	75.6	77.8	55	58.3	3	7	90	0.00	29.945 
17:50	75.8	75.8	78.0	55	58.5	2	6	112	0.00	29.945 
17:55	76.1	76.1	78.1	54	58.2	3	11	90	0.00	29.945 
18:00	76.1	76.1	78.1	54	58.2	3	6	90	0.00	29.946 
18:05	76.3	76.3	78.3	54	58.4	3	9	90	0.00	29.946 
18:10	76.3	76.3	78.3	54	58.4	3	7	90	0.00	29.946 
18:15	76.3	76.3	78.3	54	58.4	3	9	112	0.00	29.950 
18:20	76.3	76.3	78.3	54	58.4	2	6	90	0.00	29.950 
18:25	76.0	76.0	78.1	54	58.1	4	7	112	0.00	29.950 
18:30	75.8	75.8	78.0	54	57.9	3	6	135	0.00	29.954 
18:35	75.8	75.8	78.0	53	57.4	3	7	90	0.00	29.954 
18:40	75.6	75.6	77.9	53	57.2	3	7	112	0.00	29.954 
18:45	75.4	75.4	77.8	54	57.6	2	4	112	0.00	29.958 
18:50	75.3	75.3	77.7	54	57.5	2	5	135	0.00	29.958 
18:55	75.1	75.1	77.6	55	57.8	2	4	90	0.00	29.958 
19:00	74.7	74.7	74.7	54	56.9	2	6	112	0.00	29.964 
19:05	74.7	74.7	74.7	54	56.9	2	7	112	0.00	29.964 
19:10	74.6	74.6	74.6	54	56.8	2	9	112	0.00	29.964 
19:15	74.6	74.6	74.6	53	56.3	2	5	112	0.00	29.962 
19:20	74.7	74.7	74.7	54	56.9	1	3	112	0.00	29.962 
19:25	74.7	74.7	74.7	54	56.9	0	3	112	0.00	29.962 
19:30	74.6	74.6	74.6	54	56.8	2	3	112	0.00	29.964 
19:35	74.6	74.6	74.6	53	56.3	1	5	112	0.00	29.964 
19:40	74.4	74.4	74.4	52	55.6	2	5	112	0.00	29.964 
19:45	74.4	74.4	74.4	53	56.1	1	4	112	0.00	29.969 
19:50	74.2	74.2	74.2	53	56.0	1	5	90	0.00	29.969 
19:55	74.0	74.0	74.0	53	55.8	1	4	112	0.00	29.969 
20:00	73.9	73.9	73.9	53	55.7	1	4	90	0.00	29.976 
20:05	73.7	73.7	73.7	53	55.5	1	4	135	0.00	29.976 
20:10	73.5	73.5	73.5	53	55.3	1	3	112	0.00	29.976 
20:15	73.3	73.3	73.3	53	55.1	1	3	112	0.00	29.976 
20:20	73.0	73.0	73.0	53	54.8	1	4	90	0.00	29.976 
20:25	72.8	72.8	72.8	53	54.7	1	4	112	0.00	29.976 
20:30	72.5	72.5	72.5	53	54.4	1	4	112	0.00	29.979 
20:35	72.3	72.3	72.3	53	54.2	1	5	112	0.00	29.979 
20:40	72.1	72.1	72.1	54	54.5	1	2	112	0.00	29.979 
20:45	71.8	71.8	71.8	54	54.2	1	4	112	0.00	29.982 
20:50	71.6	71.6	71.6	54	54.1	1	3	112	0.00	29.982 
20:55	71.3	71.3	71.3	55	54.3	0	3	112	0.00	29.982 
21:00	71.1	71.1	71.1	55	54.1	1	3	112	0.00	29.984 
21:05	70.8	70.8	70.8	56	54.3	0	2	112	0.00	29.984 
21:10	70.4	70.4	70.4	56	53.9	0	2	112	0.00	29.984 
21:15	70.3	70.3	70.3	57	54.3	0	2	112	0.00	29.991 
21:20	69.9	69.9	69.9	57	54.0	0	1	112	0.00	29.991 
21:25	69.6	69.6	69.6	58	54.2	0	1	112	0.00	29.991 
21:30	69.3	69.3	69.3	59	54.3	0	1	112	0.00	29.994 
21:35	68.9	68.9	68.9	59	54.0	0	2	112	0.00	29.994 
21:40	68.8	68.8	68.8	60	54.3	0	1	112	0.00	29.994 
21:45	68.4	68.4	68.4	60	54.0	0	2	112	0.00	30.004 
21:50	68.3	68.3	68.3	60	53.9	0	1	112	0.00	30.004 
21:55	68.1	68.1	68.1	61	54.1	0	1	112	0.00	30.004 
22:00	67.9	67.9	67.9	61	53.9	0	2	112	0.00	30.007 
22:05	67.8	67.8	67.8	62	54.3	0	2	112	0.00	30.007 
22:10	67.8	67.8	67.8	62	54.3	0	2	112	0.00	30.007 
22:15	67.6	67.6	67.6	62	54.1	0	2	112	0.00	30.008 
22:20	67.4	67.4	67.4	63	54.4	0	1	112	0.00	30.008 
22:25	67.3	67.3	67.3	63	54.3	0	1	112	0.00	30.008 
22:30	66.9	66.9	66.9	64	54.3	0	2	112	0.00	30.008 
22:35	66.8	66.8	66.8	64	54.2	0	4	112	0.00	30.008 
22:40	66.4	66.4	66.4	64	53.8	0	1	112	0.00	30.008 
22:45	66.3	66.3	66.3	65	54.2	0	1	112	0.00	30.011 
22:50	65.8	65.8	65.8	66	54.1	0	0	---	0.00	30.011 
22:55	65.3	65.3	65.3	66	53.6	0	0	---	0.00	30.011 
23:00	64.8	64.8	64.8	67	53.6	0	0	---	0.00	30.012 
23:05	64.3	64.3	64.3	68	53.5	0	0	---	0.00	30.012 
23:10	63.9	63.9	63.9	69	53.5	0	0	---	0.00	30.012 
23:15	63.5	63.5	63.5	69	53.1	0	0	---	0.00	30.013 
23:20	63.2	63.2	63.2	70	53.2	0	0	---	0.00	30.013 
23:25	62.7	62.7	62.7	71	53.2	0	0	---	0.00	30.013 
23:30	62.4	62.4	62.4	72	53.2	0	0	---	0.00	30.016 
23:35	62.1	62.1	62.1	73	53.3	0	0	---	0.00	30.016 
23:40	61.8	61.8	61.8	73	53.0	0	0	---	0.00	30.016 
23:45	61.8	61.8	61.8	74	53.4	0	1	112	0.00	30.013 
23:50	61.8	61.8	61.8	74	53.4	0	0	---	0.00	30.013 
23:55	61.6	61.6	61.6	74	53.2	0	0	---	0.00	30.013 

CoCoRaHS
IN-AL-39
A2 Web Hosting
Creative Commons License
GoDaddy
search engine by freefind advanced

loaded 2018-11-14 03:40:23 • last modified 2010-11-18 10:43:29
Privacy PolicyDisclaimer
• wx.awcolley.com is powered by PmWiki v.2002016 •
• all content (unless otherwise noted) © 2018 A W Colley